Time;durP1;ratioP1;P1;durP2;ratioP2;P2;SDS_P1;SDS_P2;PMS_P1;PMS_P2;Temp;Humidity;BMP_temperature;BMP_pressure;BME280_temperature;BME280_humidity;BME280_pressure;Samples;Min_cycle;Max_cycle;Signal;HPM_P1;HPM_P2
2021/07/30 00:01:29;;;;;;;5.57;4.20;;;23.70;80.30;;;;;;5036084;28;20040;-72
2021/07/30 00:03:54;;;;;;;4.85;3.92;;;23.70;80.10;;;;;;5035424;28;20050;-72
2021/07/30 00:06:20;;;;;;;6.30;4.05;;;23.70;79.90;;;;;;5035818;28;20032;-72
2021/07/30 00:08:46;;;;;;;4.28;3.60;;;23.70;79.80;;;;;;5035447;28;20029;-72
2021/07/30 00:11:11;;;;;;;4.28;3.92;;;23.70;80.00;;;;;;5035350;28;20076;-72
2021/07/30 00:13:37;;;;;;;6.22;4.25;;;23.80;80.40;;;;;;5035691;28;20026;-72
2021/07/30 00:16:03;;;;;;;4.68;3.75;;;23.80;80.30;;;;;;5035573;28;20029;-72
2021/07/30 00:18:28;;;;;;;5.65;3.85;;;23.80;80.10;;;;;;5035150;28;20392;-72
2021/07/30 00:20:55;;;;;;;6.35;3.92;;;23.80;79.90;;;;;;5035445;28;20030;-72
2021/07/30 00:23:21;;;;;;;5.55;3.85;;;23.90;80.10;;;;;;5035415;28;20029;-72
2021/07/30 00:25:46;;;;;;;4.90;3.58;;;23.90;79.80;;;;;;5035451;28;20030;-72
2021/07/30 00:28:12;;;;;;;4.53;3.75;;;23.90;79.70;;;;;;5035235;28;20108;-72
2021/07/30 00:30:38;;;;;;;6.50;3.95;;;23.90;79.70;;;;;;5035345;28;20025;-72
2021/07/30 00:33:03;;;;;;;5.18;3.97;;;23.90;79.80;;;;;;5035200;28;20029;-72
2021/07/30 00:35:29;;;;;;;5.15;4.20;;;23.90;80.00;;;;;;5033938;28;20467;-72
2021/07/30 00:37:55;;;;;;;5.22;3.88;;;23.90;80.20;;;;;;5035429;28;20345;-72
2021/07/30 00:40:20;;;;;;;6.00;3.95;;;23.90;80.30;;;;;;5035099;28;20087;-72
2021/07/30 00:42:48;;;;;;;5.95;4.00;;;23.90;81.00;;;;;;5035047;28;20025;-72
2021/07/30 00:45:14;;;;;;;5.07;3.75;;;24.00;80.60;;;;;;5035251;28;20132;-72
2021/07/30 00:47:40;;;;;;;4.53;4.10;;;24.00;80.70;;;;;;5034362;28;20100;-72
2021/07/30 00:50:06;;;;;;;5.13;4.47;;;24.00;80.90;;;;;;5034945;28;20030;-72
2021/07/30 00:52:32;;;;;;;6.97;4.10;;;24.00;81.00;;;;;;5034518;28;20034;-72
2021/07/30 00:54:57;;;;;;;5.40;4.38;;;24.00;80.70;;;;;;5033553;28;20072;-72
2021/07/30 00:57:23;;;;;;;5.53;4.38;;;24.00;80.10;;;;;;5035092;28;20025;-72
2021/07/30 00:59:50;;;;;;;4.90;4.13;;;23.80;80.10;;;;;;5034448;28;20045;-72
2021/07/30 01:02:17;;;;;;;5.18;4.10;;;23.70;80.30;;;;;;5034735;28;20068;-72
2021/07/30 01:04:43;;;;;;;5.10;4.28;;;23.60;80.40;;;;;;5034685;28;20087;-71
2021/07/30 01:07:08;;;;;;;5.43;4.20;;;23.50;80.60;;;;;;5034628;28;20026;-72
2021/07/30 01:09:34;;;;;;;5.80;4.15;;;23.40;80.40;;;;;;5034564;28;20391;-72
2021/07/30 01:12:01;;;;;;;4.85;4.00;;;23.20;80.40;;;;;;5034539;28;20100;-72
2021/07/30 01:14:29;;;;;;;5.22;3.67;;;23.10;80.40;;;;;;5034899;28;20049;-71
2021/07/30 01:16:54;;;;;;;4.78;3.55;;;23.00;80.40;;;;;;5034921;28;20380;-72
2021/07/30 01:19:22;;;;;;;6.70;3.85;;;22.90;80.70;;;;;;5034091;28;20035;-72
2021/07/30 01:21:53;;;;;;;5.53;3.92;;;22.80;81.00;;;;;;5034601;28;20382;-72
2021/07/30 01:24:19;;;;;;;6.05;4.13;;;22.70;81.30;;;;;;5034479;28;20037;-72
2021/07/30 01:26:47;;;;;;;5.60;4.05;;;22.60;81.90;;;;;;5034237;28;20032;-72
2021/07/30 01:29:13;;;;;;;4.72;3.50;;;22.70;82.10;;;;;;5033785;28;20029;-72
2021/07/30 01:31:39;;;;;;;7.43;3.85;;;22.70;81.90;;;;;;5034831;28;20418;-72
2021/07/30 01:34:05;;;;;;;5.63;4.10;;;22.70;81.80;;;;;;5034388;28;20025;-72
2021/07/30 01:36:30;;;;;;;4.00;3.70;;;22.60;82.00;;;;;;5034350;28;20042;-72
2021/07/30 01:38:56;;;;;;;5.35;3.90;;;22.60;82.20;;;;;;5033959;28;20108;-72
2021/07/30 01:41:22;;;;;;;4.88;4.10;;;22.60;82.00;;;;;;5034272;28;20051;-72
2021/07/30 01:43:47;;;;;;;5.18;3.53;;;22.50;82.00;;;;;;5034267;28;20444;-72
2021/07/30 01:46:13;;;;;;;6.50;4.00;;;22.60;82.20;;;;;;5032707;28;20414;-73
2021/07/30 01:48:39;;;;;;;4.82;4.18;;;22.60;82.20;;;;;;5034443;28;20033;-72
2021/07/30 01:51:06;;;;;;;4.95;4.18;;;22.60;82.10;;;;;;5033557;28;20029;-72
2021/07/30 01:53:32;;;;;;;4.55;4.10;;;22.50;81.80;;;;;;5033978;28;20032;-73
2021/07/30 01:56:03;;;;;;;6.05;4.68;;;22.50;82.00;;;;;;5033655;28;20105;-72
2021/07/30 01:58:30;;;;;;;4.85;4.10;;;22.40;82.10;;;;;;5031626;28;20097;-72
2021/07/30 02:00:56;;;;;;;7.05;4.20;;;22.40;82.40;;;;;;5033541;28;20033;-72
2021/07/30 02:03:21;;;;;;;5.03;4.50;;;22.30;82.20;;;;;;5033915;28;20100;-73
2021/07/30 02:05:47;;;;;;;4.65;3.92;;;22.20;81.90;;;;;;5033819;28;20064;-72
2021/07/30 02:08:13;;;;;;;6.13;4.28;;;22.20;82.10;;;;;;5033381;28;20021;-72
2021/07/30 02:11:22;;;;;;;8.30;5.00;;;22.20;82.50;;;;;;5033878;28;20021;-73
2021/07/30 02:16:32;;;;;;;5.15;4.65;;;22.10;82.50;;;;;;5033468;28;20035;-73
2021/07/30 02:18:58;;;;;;;8.30;5.43;;;22.00;82.70;;;;;;5031994;28;20038;-72
2021/07/30 02:21:24;;;;;;;4.97;4.32;;;22.00;82.80;;;;;;5033477;28;20079;-72
2021/07/30 02:23:49;;;;;;;6.32;4.70;;;22.00;82.80;;;;;;5033267;28;20526;-72
2021/07/30 02:26:15;;;;;;;5.88;4.57;;;22.00;82.70;;;;;;5033388;28;20029;-72
2021/07/30 02:28:41;;;;;;;6.38;5.03;;;21.90;82.80;;;;;;5033321;28;20036;-72
2021/07/30 02:31:06;;;;;;;6.35;4.90;;;21.90;82.90;;;;;;5033855;28;20133;-72
2021/07/30 02:33:32;;;;;;;6.40;5.15;;;21.90;83.10;;;;;;5033044;28;20030;-72
2021/07/30 02:35:58;;;;;;;5.43;4.93;;;21.90;83.00;;;;;;5033543;28;20064;-72
2021/07/30 02:38:24;;;;;;;7.00;4.60;;;21.90;83.00;;;;;;5033200;28;20064;-72
2021/07/30 02:40:49;;;;;;;7.93;4.47;;;21.80;82.90;;;;;;5033547;28;20037;-76
2021/07/30 02:43:15;;;;;;;6.68;4.82;;;21.90;83.10;;;;;;5033501;28;20025;-72
2021/07/30 02:45:41;;;;;;;6.38;4.50;;;21.90;83.20;;;;;;5033134;28;20147;-72
2021/07/30 02:48:07;;;;;;;7.93;4.28;;;22.00;83.30;;;;;;5032808;28;20484;-72
2021/07/30 02:50:32;;;;;;;9.55;4.68;;;22.00;82.90;;;;;;5033128;28;20033;-72
2021/07/30 02:52:58;;;;;;;6.60;4.63;;;22.00;82.60;;;;;;5033215;28;20583;-72
2021/07/30 02:55:23;;;;;;;5.72;4.50;;;22.00;82.40;;;;;;5033643;28;20407;-72
2021/07/30 02:57:49;;;;;;;5.10;4.18;;;22.10;82.40;;;;;;5033398;28;20036;-72
2021/07/30 03:00:15;;;;;;;8.50;4.65;;;22.00;82.30;;;;;;5032909;28;20116;-72
2021/07/30 03:02:41;;;;;;;5.43;4.72;;;22.10;82.30;;;;;;5033445;28;20468;-72
2021/07/30 03:05:07;;;;;;;7.13;5.07;;;22.00;82.20;;;;;;5033491;28;20112;-72
2021/07/30 03:07:33;;;;;;;5.95;4.63;;;22.00;82.30;;;;;;5032843;28;20069;-72
2021/07/30 03:09:58;;;;;;;6.75;5.07;;;22.10;82.40;;;;;;5033713;28;20049;-72
2021/07/30 03:12:24;;;;;;;8.45;4.43;;;22.10;82.30;;;;;;5037727;28;20435;-72
2021/07/30 03:14:50;;;;;;;7.60;5.05;;;22.20;82.40;;;;;;5036558;28;20035;-72
2021/07/30 03:17:15;;;;;;;6.82;5.07;;;22.20;82.30;;;;;;5036873;28;20030;-72
2021/07/30 03:19:41;;;;;;;7.53;5.30;;;22.30;82.10;;;;;;5036759;28;20041;-72
2021/07/30 03:22:07;;;;;;;6.32;4.40;;;22.30;81.60;;;;;;5036744;28;20068;-72
2021/07/30 03:24:33;;;;;;;8.23;5.55;;;22.40;81.40;;;;;;5037502;28;20076;-72
2021/07/30 03:26:58;;;;;;;8.25;5.50;;;22.40;81.20;;;;;;5036671;28;20383;-72
2021/07/30 03:29:24;;;;;;;6.50;5.30;;;22.40;81.40;;;;;;5036542;28;20068;-72
2021/07/30 03:31:50;;;;;;;7.43;5.13;;;22.40;81.40;;;;;;5036266;28;20037;-72
2021/07/30 03:34:16;;;;;;;7.55;5.00;;;22.40;81.40;;;;;;5036507;28;20029;-72
2021/07/30 03:36:43;;;;;;;7.32;5.50;;;22.40;81.30;;;;;;5036168;28;20034;-72
2021/07/30 03:39:10;;;;;;;10.88;6.07;;;22.40;81.40;;;;;;5036415;28;20058;-72
2021/07/30 03:41:36;;;;;;;10.90;5.40;;;22.40;81.20;;;;;;5036920;28;20376;-72
2021/07/30 03:44:02;;;;;;;6.18;5.40;;;22.50;81.20;;;;;;5036339;28;20021;-72
2021/07/30 03:46:28;;;;;;;7.10;4.95;;;22.50;81.30;;;;;;5035965;28;20034;-72
2021/07/30 03:48:54;;;;;;;8.60;5.57;;;22.50;81.20;;;;;;5035985;28;20083;-72
2021/07/30 03:51:19;;;;;;;7.82;5.43;;;22.60;81.10;;;;;;5036574;28;20455;-72
2021/07/30 03:53:45;;;;;;;9.13;6.00;;;22.60;81.00;;;;;;5036077;28;20056;-72
2021/07/30 03:56:15;;;;;;;8.55;5.72;;;22.60;80.90;;;;;;5036280;28;20044;-72
2021/07/30 03:58:42;;;;;;;7.38;5.90;;;22.70;80.90;;;;;;5035887;28;20029;-72
2021/07/30 04:01:08;;;;;;;7.90;5.40;;;22.60;80.90;;;;;;5036009;28;20021;-72
2021/07/30 04:03:34;;;;;;;9.32;6.18;;;22.70;80.90;;;;;;5036491;28;20369;-72
2021/07/30 04:06:04;;;;;;;7.78;6.18;;;22.70;80.70;;;;;;5035541;28;20029;-72
2021/07/30 04:08:32;;;;;;;8.68;5.60;;;22.70;80.90;;;;;;5035831;28;20033;-72
2021/07/30 04:10:59;;;;;;;7.22;5.47;;;22.70;80.80;;;;;;5036108;28;20026;-72
2021/07/30 04:13:25;;;;;;;6.93;5.90;;;22.80;80.80;;;;;;5035548;28;20476;-72
2021/07/30 04:15:50;;;;;;;6.93;5.90;;;22.80;80.60;;;;;;5035484;28;20387;-72
2021/07/30 04:18:16;;;;;;;8.68;5.90;;;22.80;80.60;;;;;;5035747;28;20029;-72
2021/07/30 04:20:42;;;;;;;8.52;6.63;;;22.80;80.50;;;;;;5035528;28;20037;-72
2021/07/30 04:23:07;;;;;;;9.23;6.20;;;22.90;80.60;;;;;;5034401;28;20022;-72
2021/07/30 04:25:33;;;;;;;9.65;6.22;;;22.90;80.50;;;;;;5035567;28;20044;-72
2021/07/30 04:27:59;;;;;;;10.60;6.90;;;23.00;80.50;;;;;;5036078;28;20021;-72
2021/07/30 04:30:25;;;;;;;10.43;6.63;;;23.00;80.50;;;;;;5035427;28;20029;-72
2021/07/30 04:32:51;;;;;;;8.13;6.78;;;23.10;80.40;;;;;;5035648;28;20040;-72
2021/07/30 04:35:17;;;;;;;10.43;6.55;;;23.20;80.40;;;;;;5035327;28;20022;-72
2021/07/30 04:37:42;;;;;;;9.60;7.10;;;23.30;80.40;;;;;;5035433;28;20502;-72
2021/07/30 04:40:08;;;;;;;10.02;6.38;;;23.30;80.30;;;;;;5035094;28;20499;-72
2021/07/30 04:42:34;;;;;;;11.55;7.15;;;23.30;80.30;;;;;;5034843;28;20525;-72
2021/07/30 04:45:00;;;;;;;9.48;7.70;;;23.40;80.30;;;;;;5035382;28;20087;-72
2021/07/30 04:47:25;;;;;;;13.40;8.15;;;23.50;80.40;;;;;;5035158;28;20029;-72
2021/07/30 04:49:51;;;;;;;10.90;8.25;;;23.50;80.40;;;;;;5035324;28;20441;-72
2021/07/30 04:52:17;;;;;;;14.23;8.35;;;23.60;80.30;;;;;;5033787;28;20025;-72
2021/07/30 04:54:42;;;;;;;11.65;8.27;;;23.70;80.20;;;;;;5034895;28;20460;-73
2021/07/30 04:57:09;;;;;;;12.35;8.18;;;23.90;80.10;;;;;;5034982;28;20487;-74
2021/07/30 04:59:35;;;;;;;12.70;8.93;;;24.00;80.00;;;;;;5034945;28;20120;-72
2021/07/30 05:02:00;;;;;;;12.45;8.85;;;24.10;79.70;;;;;;5034510;28;20049;-72
2021/07/30 05:04:26;;;;;;;9.32;8.07;;;24.20;79.60;;;;;;5034795;28;20033;-72
2021/07/30 05:06:52;;;;;;;12.52;8.48;;;24.30;79.40;;;;;;5033348;28;20025;-71
2021/07/30 05:09:18;;;;;;;10.05;9.05;;;24.40;79.30;;;;;;5035402;28;20040;-71
2021/07/30 05:11:43;;;;;;;10.90;8.18;;;24.50;79.00;;;;;;5034283;28;20490;-72
2021/07/30 05:14:09;;;;;;;9.63;8.27;;;24.70;78.80;;;;;;5034749;28;20025;-72
2021/07/30 05:16:35;;;;;;;10.65;8.75;;;24.80;78.50;;;;;;5034255;28;20022;-72
2021/07/30 05:19:01;;;;;;;13.18;8.95;;;24.90;78.30;;;;;;5034441;28;20029;-72
2021/07/30 05:21:27;;;;;;;12.75;8.85;;;25.00;77.70;;;;;;5034691;28;20052;-71
2021/07/30 05:23:52;;;;;;;12.05;9.38;;;25.10;77.40;;;;;;5034343;28;20030;-72
2021/07/30 05:26:18;;;;;;;11.43;9.30;;;25.20;77.30;;;;;;5034217;28;20025;-71
2021/07/30 05:28:44;;;;;;;12.43;8.90;;;25.30;77.20;;;;;;5034214;28;20026;-72
2021/07/30 05:31:15;;;;;;;12.13;9.20;;;25.40;76.90;;;;;;5034228;28;20040;-71
2021/07/30 05:33:40;;;;;;;11.63;9.50;;;25.50;76.40;;;;;;5033618;28;20067;-71
2021/07/30 05:36:06;;;;;;;12.60;9.00;;;25.60;76.10;;;;;;5034502;28;20029;-71
2021/07/30 05:38:32;;;;;;;12.27;8.63;;;25.70;75.80;;;;;;5033574;28;20032;-71
2021/07/30 05:40:58;;;;;;;14.02;9.80;;;25.80;75.10;;;;;;5033804;28;20071;-71
2021/07/30 05:43:23;;;;;;;15.18;8.45;;;25.90;74.70;;;;;;5034525;28;20025;-71
2021/07/30 05:45:49;;;;;;;9.88;8.40;;;26.00;74.20;;;;;;5033970;28;20035;-71
2021/07/30 05:48:15;;;;;;;12.27;8.52;;;26.10;73.70;;;;;;5033785;28;20025;-71
2021/07/30 05:50:40;;;;;;;11.43;8.93;;;26.20;73.20;;;;;;5033684;28;20037;-71
2021/07/30 05:53:06;;;;;;;10.20;7.88;;;26.20;73.00;;;;;;5033699;28;20395;-71
2021/07/30 05:55:32;;;;;;;13.55;8.88;;;26.30;72.80;;;;;;5033703;28;20041;-71
2021/07/30 05:58:00;;;;;;;11.30;8.50;;;26.30;72.60;;;;;;5034394;28;20029;-72
2021/07/30 06:00:26;;;;;;;11.65;8.45;;;26.40;72.40;;;;;;5033413;28;20495;-74
2021/07/30 06:02:52;;;;;;;9.23;8.30;;;26.40;72.10;;;;;;5033715;28;20095;-71
2021/07/30 06:05:17;;;;;;;11.68;9.05;;;26.40;71.80;;;;;;5033695;28;20500;-73
2021/07/30 06:07:43;;;;;;;12.30;9.15;;;26.40;71.70;;;;;;5033306;28;20029;-71
2021/07/30 06:10:09;;;;;;;11.27;8.60;;;26.40;71.80;;;;;;5033930;28;20029;-71
2021/07/30 06:12:35;;;;;;;9.55;8.52;;;26.50;71.90;;;;;;5034085;28;20030;-71
2021/07/30 06:15:00;;;;;;;11.32;9.35;;;26.60;71.80;;;;;;5033374;28;20361;-72
2021/07/30 06:17:26;;;;;;;10.00;8.80;;;26.60;71.70;;;;;;5033058;28;20029;-71
2021/07/30 06:19:52;;;;;;;9.45;8.55;;;26.70;71.40;;;;;;5033359;28;20034;-71
2021/07/30 06:22:19;;;;;;;10.73;8.80;;;26.70;71.30;;;;;;5034164;28;20021;-72
2021/07/30 06:24:45;;;;;;;11.73;9.18;;;26.80;71.10;;;;;;5033553;28;20053;-71
2021/07/30 06:27:11;;;;;;;13.52;8.77;;;26.90;70.90;;;;;;5033570;28;20135;-71
2021/07/30 06:29:37;;;;;;;11.07;8.13;;;26.90;71.00;;;;;;5033391;28;20052;-71
2021/07/30 06:32:03;;;;;;;13.88;8.68;;;27.00;70.60;;;;;;5033131;28;20022;-72
2021/07/30 06:34:29;;;;;;;9.38;8.48;;;27.10;70.20;;;;;;5033663;28;20026;-72
2021/07/30 06:36:58;;;;;;;9.60;8.60;;;27.10;69.60;;;;;;5033812;28;20021;-72
2021/07/30 06:39:24;;;;;;;9.27;8.43;;;27.20;68.80;;;;;;5033155;28;20579;-72
2021/07/30 06:41:51;;;;;;;10.35;8.25;;;27.30;68.30;;;;;;5033701;28;20032;-72
2021/07/30 06:44:17;;;;;;;9.95;7.97;;;27.30;67.80;;;;;;5033180;28;20446;-72
2021/07/30 06:46:42;;;;;;;9.55;7.85;;;27.40;67.20;;;;;;5036709;28;20104;-72
2021/07/30 06:49:08;;;;;;;9.73;8.07;;;27.40;67.00;;;;;;5037175;28;20103;-72
2021/07/30 06:51:34;;;;;;;8.60;7.70;;;27.50;66.90;;;;;;5037014;28;20029;-72
2021/07/30 06:54:01;;;;;;;9.57;8.23;;;27.50;66.50;;;;;;5037346;28;20034;-72
2021/07/30 06:56:28;;;;;;;10.75;7.57;;;27.50;66.00;;;;;;5036942;28;20103;-73
2021/07/30 06:58:54;;;;;;;8.35;7.40;;;27.50;65.90;;;;;;5037522;28;20076;-72
2021/07/30 07:01:20;;;;;;;12.80;8.10;;;27.60;66.00;;;;;;5037529;28;20472;-73
2021/07/30 07:03:46;;;;;;;10.15;8.10;;;27.60;65.80;;;;;;5037644;28;20111;-72
2021/07/30 07:06:15;;;;;;;11.65;7.43;;;27.70;65.70;;;;;;5036796;28;20056;-73
2021/07/30 07:08:41;;;;;;;9.00;7.60;;;27.80;65.40;;;;;;5036625;28;20096;-72
2021/07/30 07:11:06;;;;;;;8.80;7.28;;;27.90;65.30;;;;;;5036894;28;20526;-73
2021/07/30 07:13:32;;;;;;;8.52;7.65;;;27.90;65.10;;;;;;5036862;28;20060;-73
2021/07/30 07:15:58;;;;;;;8.32;7.30;;;28.00;65.10;;;;;;5036892;28;20074;-73
2021/07/30 07:18:23;;;;;;;7.97;7.18;;;28.00;64.80;;;;;;5037539;28;20061;-73
2021/07/30 07:20:56;;;;;;;8.30;7.28;;;28.00;64.80;;;;;;5035277;28;20229;-73
2021/07/30 07:23:22;;;;;;;8.70;7.20;;;28.20;64.80;;;;;;5035745;28;20033;-72
2021/07/30 07:25:48;;;;;;;8.73;6.97;;;28.30;64.50;;;;;;5036570;28;20036;-72
2021/07/30 07:28:13;;;;;;;9.30;7.55;;;28.40;64.10;;;;;;5036691;28;20105;-73
2021/07/30 07:30:39;;;;;;;10.10;6.78;;;28.40;63.70;;;;;;5036030;28;20100;-74
2021/07/30 07:33:05;;;;;;;9.20;7.68;;;28.50;63.40;;;;;;5035745;28;20155;-72
2021/07/30 07:35:30;;;;;;;7.80;7.00;;;28.50;63.10;;;;;;5035211;28;20041;-73
2021/07/30 07:38:04;;;;;;;8.15;6.93;;;28.50;63.00;;;;;;5036374;28;20022;-72
2021/07/30 07:40:30;;;;;;;10.82;7.55;;;28.50;62.80;;;;;;5036884;28;20045;-73
2021/07/30 07:42:59;;;;;;;9.65;7.07;;;28.60;62.70;;;;;;5036281;28;20038;-72
2021/07/30 07:45:25;;;;;;;8.88;7.00;;;28.60;62.50;;;;;;5036139;28;20112;-73
2021/07/30 07:47:54;;;;;;;8.05;6.47;;;28.70;62.10;;;;;;5036012;28;20017;-72
2021/07/30 07:50:20;;;;;;;8.57;6.80;;;28.80;61.70;;;;;;5036051;28;20036;-72
2021/07/30 07:52:45;;;;;;;8.38;6.47;;;28.80;61.40;;;;;;5036224;28;20029;-73
2021/07/30 07:55:11;;;;;;;7.70;7.00;;;28.80;61.30;;;;;;5036288;28;20032;-73
2021/07/30 07:57:41;;;;;;;11.52;6.82;;;28.80;61.40;;;;;;5035947;28;20467;-72
2021/07/30 08:00:11;;;;;;;7.78;6.53;;;28.90;61.40;;;;;;5035881;28;20073;-73
2021/07/30 08:02:37;;;;;;;7.10;6.40;;;29.00;61.00;;;;;;5035383;28;20095;-73
2021/07/30 08:05:03;;;;;;;7.00;6.30;;;29.10;60.60;;;;;;5035730;28;20017;-73
2021/07/30 08:07:28;;;;;;;7.00;6.22;;;29.20;60.50;;;;;;5035871;28;20033;-73
2021/07/30 08:09:54;;;;;;;7.70;6.72;;;29.30;60.30;;;;;;5034099;28;20079;-72
2021/07/30 08:12:20;;;;;;;7.25;6.55;;;29.40;60.00;;;;;;5035628;28;20443;-73
2021/07/30 08:14:46;;;;;;;8.90;7.22;;;29.60;60.30;;;;;;5035023;28;20029;-73
2021/07/30 08:17:11;;;;;;;7.72;6.88;;;29.70;60.00;;;;;;5035557;28;20021;-73
2021/07/30 08:19:38;;;;;;;6.60;6.00;;;29.90;59.70;;;;;;5035823;28;20038;-73
2021/07/30 08:22:05;;;;;;;7.10;6.40;;;30.00;60.00;;;;;;5035743;28;20021;-73
2021/07/30 08:24:31;;;;;;;8.10;6.47;;;30.00;58.80;;;;;;5035515;28;20072;-72
2021/07/30 08:26:57;;;;;;;9.20;5.72;;;30.10;58.10;;;;;;5035760;28;20516;-72
2021/07/30 08:29:23;;;;;;;8.18;5.93;;;30.20;57.30;;;;;;5035370;28;20030;-72
2021/07/30 08:31:48;;;;;;;6.50;5.43;;;30.20;57.20;;;;;;5034998;28;20068;-73
2021/07/30 08:34:15;;;;;;;6.55;5.90;;;30.40;57.00;;;;;;5034892;28;20021;-72
2021/07/30 08:36:41;;;;;;;6.13;5.53;;;30.50;56.30;;;;;;5035397;28;20030;-71
2021/07/30 08:39:08;;;;;;;6.70;5.97;;;30.60;56.20;;;;;;5034957;28;20041;-72
2021/07/30 08:41:35;;;;;;;8.80;6.00;;;30.80;56.30;;;;;;5035329;28;20373;-72
2021/07/30 08:44:01;;;;;;;6.63;6.00;;;31.00;56.10;;;;;;5034906;28;20040;-72
2021/07/30 08:46:27;;;;;;;6.47;5.88;;;31.20;55.80;;;;;;5034613;28;20025;-72
2021/07/30 08:48:54;;;;;;;6.82;5.65;;;31.40;55.50;;;;;;5035147;28;20463;-73
2021/07/30 08:51:21;;;;;;;6.63;6.00;;;31.50;55.40;;;;;;5034964;28;20127;-72
2021/07/30 08:53:47;;;;;;;7.45;6.80;;;31.80;55.10;;;;;;5034557;28;20379;-73
2021/07/30 08:56:15;;;;;;;6.45;5.80;;;31.90;54.90;;;;;;5034928;28;20055;-72
2021/07/30 08:58:42;;;;;;;7.55;5.72;;;32.10;54.50;;;;;;5034548;28;20343;-72
2021/07/30 09:01:10;;;;;;;6.30;5.70;;;32.30;54.20;;;;;;5034553;28;20026;-72
2021/07/30 09:03:44;;;;;;;6.45;5.60;;;32.60;53.80;;;;;;5035280;28;20590;-72
2021/07/30 09:06:10;;;;;;;;;;;32.90;53.20;;;;;;5034826;28;20422;-72
2021/07/30 09:08:36;;;;;;;7.00;6.32;;;33.10;53.70;;;;;;5033886;28;20003;-73
2021/07/30 09:11:02;;;;;;;6.57;5.97;;;33.40;52.90;;;;;;5034215;28;20129;-72
2021/07/30 09:13:29;;;;;;;6.78;6.13;;;33.60;52.40;;;;;;5034531;28;20029;-72
2021/07/30 09:16:09;;;;;;;8.63;6.32;;;33.80;51.90;;;;;;5034145;28;20033;-73
2021/07/30 09:18:37;;;;;;;6.97;6.30;;;34.10;51.60;;;;;;5033717;28;20491;-73
2021/07/30 09:21:24;;;;;;;6.53;5.80;;;34.30;51.40;;;;;;5034028;28;20053;-72
2021/07/30 09:24:05;;;;;;;6.80;6.10;;;34.60;51.00;;;;;;5034427;28;20030;-72
2021/07/30 09:26:50;;;;;;;6.45;5.85;;;35.00;50.60;;;;;;5033040;28;20055;-73
2021/07/30 09:29:21;;;;;;;6.63;6.05;;;35.30;50.00;;;;;;5033363;28;20030;-72
2021/07/30 09:31:57;;;;;;;6.20;5.60;;;35.70;49.50;;;;;;5034146;28;20033;-73
2021/07/30 09:34:28;;;;;;;6.63;5.90;;;36.10;48.90;;;;;;5016533;28;20025;-73
2021/07/30 09:37:09;;;;;;;6.28;5.68;;;36.40;48.40;;;;;;5032681;28;20036;-73
2021/07/30 09:39:40;;;;;;;11.50;6.05;;;36.60;48.10;;;;;;5033014;28;20495;-73
2021/07/30 09:42:08;;;;;;;7.35;6.65;;;36.90;48.20;;;;;;5032400;28;20040;-74
2021/07/30 09:44:55;;;;;;;8.60;6.80;;;37.20;47.60;;;;;;5032388;28;20025;-73
2021/07/30 09:47:24;;;;;;;6.90;6.20;;;37.40;47.00;;;;;;5033449;28;20021;-73
2021/07/30 09:49:50;;;;;;;8.27;6.18;;;37.70;46.70;;;;;;5032322;28;20056;-73
2021/07/30 09:52:17;;;;;;;9.10;6.60;;;38.00;46.40;;;;;;5033296;28;20029;-73
2021/07/30 09:54:48;;;;;;;6.20;5.63;;;38.20;46.00;;;;;;5032290;28;20030;-73
2021/07/30 09:57:19;;;;;;;7.68;6.30;;;38.30;45.80;;;;;;5033483;28;20025;-73
2021/07/30 09:59:46;;;;;;;8.50;6.05;;;38.50;45.50;;;;;;5031600;28;20072;-73
2021/07/30 10:02:14;;;;;;;7.50;6.65;;;38.50;45.00;;;;;;5033450;28;20046;-73
2021/07/30 10:04:44;;;;;;;6.65;5.78;;;38.00;45.20;;;;;;5032140;28;20029;-72
2021/07/30 10:07:14;;;;;;;7.32;5.97;;;37.90;45.30;;;;;;5033669;28;20426;-73
2021/07/30 10:09:58;;;;;;;6.60;5.78;;;38.00;44.90;;;;;;5033752;28;20416;-73
2021/07/30 10:12:24;;;;;;;7.18;6.47;;;37.90;44.50;;;;;;5018176;28;20490;-73
2021/07/30 10:14:51;;;;;;;6.60;5.47;;;37.90;44.80;;;;;;5032096;28;20034;-74
2021/07/30 10:17:28;;;;;;;7.40;5.50;;;38.20;44.50;;;;;;5033771;28;20025;-73
2021/07/30 10:19:54;;;;;;;8.25;5.25;;;38.30;43.80;;;;;;5032738;28;20045;-75
2021/07/30 10:22:22;;;;;;;9.85;5.38;;;38.40;44.20;;;;;;5032147;28;20033;-73
2021/07/30 10:24:51;;;;;;;5.55;5.05;;;38.40;43.80;;;;;;5032230;28;20057;-75
2021/07/30 10:27:20;;;;;;;9.20;5.47;;;38.50;43.00;;;;;;5033519;28;20103;-75
2021/07/30 10:30:08;;;;;;;6.55;5.40;;;38.70;42.80;;;;;;5032977;28;20545;-73
2021/07/30 10:33:01;;;;;;;6.22;5.53;;;39.20;42.60;;;;;;5032041;28;20025;-73
2021/07/30 10:35:26;;;;;;;7.28;5.10;;;39.70;42.10;;;;;;5033268;28;20029;-73
2021/07/30 10:38:15;;;;;;;6.05;4.93;;;40.00;41.80;;;;;;5032992;28;20025;-73
2021/07/30 10:41:05;;;;;;;8.20;5.47;;;40.30;41.70;;;;;;5033157;28;20029;-73
2021/07/30 10:43:33;;;;;;;7.00;5.50;;;40.60;41.80;;;;;;5032357;28;20486;-73
2021/07/30 10:46:07;;;;;;;6.40;5.80;;;40.90;41.70;;;;;;5031885;28;20030;-83
2021/07/30 10:48:33;;;;;;;7.57;5.50;;;41.20;41.50;;;;;;5032894;28;20029;-76
2021/07/30 10:51:01;;;;;;;6.90;5.68;;;41.40;41.10;;;;;;5031982;28;20460;-75
2021/07/30 10:53:38;;;;;;;5.93;5.43;;;41.40;40.90;;;;;;5031942;28;20078;-75
2021/07/30 10:56:08;;;;;;;6.80;5.53;;;41.50;40.80;;;;;;5032133;28;20403;-72
2021/07/30 10:58:39;;;;;;;7.63;6.03;;;41.50;40.80;;;;;;5031673;28;20034;-73
2021/07/30 11:01:09;;;;;;;6.10;5.50;;;41.80;40.50;;;;;;5033093;28;20206;-74
2021/07/30 11:03:53;;;;;;;6.05;5.45;;;41.90;40.10;;;;;;5031925;28;20396;-75
2021/07/30 11:06:26;;;;;;;6.18;5.57;;;41.90;39.90;;;;;;5031790;28;20117;-75
2021/07/30 11:09:01;;;;;;;6.05;5.45;;;41.90;39.90;;;;;;5032446;28;20025;-74
2021/07/30 11:11:45;;;;;;;7.53;6.00;;;41.60;40.10;;;;;;5033106;28;20108;-74
2021/07/30 11:14:14;;;;;;;6.63;5.80;;;41.70;40.40;;;;;;5033336;28;20484;-74
2021/07/30 11:16:42;;;;;;;5.88;5.38;;;42.10;40.40;;;;;;5031669;28;20195;-74
2021/07/30 11:19:10;;;;;;;5.78;5.32;;;42.30;40.10;;;;;;5033203;28;20041;-74
2021/07/30 11:21:35;;;;;;;6.00;5.50;;;42.70;39.70;;;;;;5031842;28;20385;-74
2021/07/30 11:24:03;;;;;;;7.95;5.95;;;43.00;39.30;;;;;;5033105;28;20025;-74
2021/07/30 11:26:29;;;;;;;6.70;5.55;;;43.00;38.90;;;;;;5031627;28;20112;-74
2021/07/30 11:28:57;;;;;;;6.40;5.80;;;42.90;39.10;;;;;;5015168;28;20026;-74
2021/07/30 11:31:23;;;;;;;5.82;5.28;;;43.10;38.90;;;;;;5033685;28;20025;-74
2021/07/30 11:33:49;;;;;;;6.28;5.68;;;43.50;38.30;;;;;;5035757;28;20187;-74
2021/07/30 11:36:15;;;;;;;5.93;5.43;;;43.70;38.10;;;;;;5036167;28;20471;-74
2021/07/30 11:38:48;;;;;;;5.93;5.43;;;43.80;38.00;;;;;;5036461;28;20030;-74
2021/07/30 11:41:14;;;;;;;5.90;5.30;;;44.20;37.80;;;;;;5036253;28;20120;-73
2021/07/30 11:44:00;;;;;;;6.13;5.57;;;44.40;37.50;;;;;;5034682;28;20079;-74
2021/07/30 11:46:27;;;;;;;7.80;5.32;;;44.80;37.20;;;;;;5036729;28;20040;-74
2021/07/30 11:48:53;;;;;;;5.70;5.18;;;45.10;37.10;;;;;;5036471;28;20033;-74
2021/07/30 11:51:19;;;;;;;5.07;4.68;;;45.40;36.90;;;;;;5034507;28;20025;-73
2021/07/30 11:53:50;;;;;;;6.15;5.18;;;45.80;36.40;;;;;;5035702;28;20029;-73
2021/07/30 11:56:17;;;;;;;5.70;5.20;;;46.10;35.70;;;;;;5035481;28;20030;-73
2021/07/30 11:58:56;;;;;;;5.97;5.45;;;46.10;35.60;;;;;;5035755;28;20025;-74
2021/07/30 12:01:22;;;;;;;5.53;5.00;;;45.80;35.60;;;;;;5036264;28;20083;-74
2021/07/30 12:04:09;;;;;;;8.30;5.18;;;45.10;36.00;;;;;;5034674;28;20053;-74
2021/07/30 12:06:55;;;;;;;7.68;5.57;;;45.20;36.10;;;;;;5034561;28;20033;-76
2021/07/30 12:09:21;;;;;;;6.13;5.20;;;45.00;36.10;;;;;;5035540;28;20112;-75
2021/07/30 12:11:56;;;;;;;5.28;4.88;;;45.10;36.10;;;;;;5034552;28;20037;-73
2021/07/30 12:14:25;;;;;;;5.82;4.93;;;45.50;35.50;;;;;;5036050;28;20036;-73
2021/07/30 12:16:51;;;;;;;5.40;4.90;;;46.10;35.40;;;;;;5036032;28;20029;-72
2021/07/30 12:19:27;;;;;;;4.80;4.40;;;46.60;35.10;;;;;;5036026;28;20029;-74
2021/07/30 12:21:58;;;;;;;4.72;4.40;;;47.10;34.30;;;;;;5036129;28;20113;-73
2021/07/30 12:24:24;;;;;;;5.55;4.68;;;47.30;34.00;;;;;;5036427;28;20033;-73
2021/07/30 12:26:51;;;;;;;5.22;4.72;;;47.50;33.70;;;;;;5035657;28;20029;-73
2021/07/30 12:29:45;;;;;;;6.60;4.50;;;46.90;33.60;;;;;;5035518;28;20030;-73
2021/07/30 12:32:23;;;;;;;4.85;4.45;;;46.60;34.00;;;;;;5029576;28;20049;-72
2021/07/30 12:35:03;;;;;;;5.28;4.78;;;46.60;33.70;;;;;;5035481;28;20456;-73
2021/07/30 12:37:31;;;;;;;5.55;5.05;;;46.60;33.70;;;;;;5035269;28;20056;-73
2021/07/30 12:39:59;;;;;;;5.35;4.93;;;46.80;33.70;;;;;;5033693;28;20038;-74
2021/07/30 12:42:37;;;;;;;5.05;4.65;;;47.20;33.60;;;;;;5035098;28;20084;-72
2021/07/30 12:45:10;;;;;;;4.72;4.32;;;47.60;33.30;;;;;;5033636;28;20022;-73
2021/07/30 12:47:51;;;;;;;6.55;4.45;;;47.80;33.10;;;;;;5033892;28;20026;-73
2021/07/30 12:50:24;;;;;;;5.05;4.55;;;47.50;32.60;;;;;;5035264;28;20064;-72
2021/07/30 12:53:04;;;;;;;5.28;4.57;;;46.90;32.90;;;;;;5033583;28;20422;-74